createdAt,value
2023-05-09T00:08:47.163Z,3410.66113
2023-05-09T00:23:49.268Z,3675.65308
2023-05-09T00:38:51.216Z,9193.57031
2023-05-09T00:53:53.265Z,8532.99219
2023-05-09T01:08:55.261Z,5602.8667
2023-05-09T01:23:57.242Z,4809.15918
2023-05-09T01:38:59.407Z,2250.5293
2023-05-09T01:54:01.389Z,2123.73877
2023-05-09T02:09:03.341Z,1849.8717
2023-05-09T02:24:05.417Z,1308.47668
2023-05-09T02:39:07.413Z,1040.94897
2023-05-09T02:54:09.407Z,636.48773
2023-05-09T03:09:11.381Z,251.04495
2023-05-09T03:24:13.325Z,55.78777
2023-05-09T03:39:15.385Z,6.33952
2023-05-09T03:54:17.416Z,0
2023-05-09T04:09:19.388Z,0
2023-05-09T04:24:21.502Z,0
2023-05-09T04:39:23.471Z,0
2023-05-09T04:54:25.455Z,0
2023-05-09T05:09:27.485Z,0
2023-05-09T05:24:29.458Z,0
2023-05-09T05:39:31.455Z,0
2023-05-09T05:54:33.398Z,0
2023-05-09T06:09:35.339Z,0
2023-05-09T06:24:37.549Z,0
2023-05-09T06:39:39.500Z,0
2023-05-09T06:54:41.691Z,0
2023-05-09T07:09:43.686Z,0
2023-05-09T07:24:45.658Z,0
2023-05-09T07:39:47.684Z,0
2023-05-09T07:54:49.845Z,0
2023-05-09T08:09:51.846Z,0
2023-05-09T08:24:53.885Z,0
2023-05-09T08:39:55.866Z,0
2023-05-09T08:54:58.777Z,0
2023-05-09T09:10:00.781Z,0
2023-05-09T09:25:02.719Z,0
2023-05-09T09:40:04.770Z,0
2023-05-09T09:55:06.990Z,0
2023-05-09T10:10:09.076Z,0
2023-05-09T10:25:11.066Z,0
2023-05-09T10:40:13.038Z,0
2023-05-09T10:55:15.270Z,0
2023-05-09T11:10:17.613Z,0
2023-05-09T11:25:19.601Z,0
2023-05-09T11:40:21.696Z,1.2679
2023-05-09T11:55:23.781Z,11.41113
2023-05-09T12:10:25.781Z,84.94955
2023-05-09T12:25:27.757Z,200.3288
2023-05-09T12:40:29.855Z,343.60193
2023-05-09T12:55:31.965Z,928.10559
2023-05-09T13:10:33.915Z,910.35492
2023-05-09T13:25:35.905Z,1204.50867
2023-05-09T13:40:38.126Z,1948.76819
2023-05-09T13:55:40.094Z,1616.57739
2023-05-09T14:10:42.117Z,2582.71997
2023-05-09T14:25:44.139Z,3597.04321
2023-05-09T14:40:46.204Z,3603.38257
2023-05-09T14:55:48.245Z,9698.19629
2023-05-09T15:10:50.203Z,10978.7793
2023-05-09T15:25:52.339Z,16456.12305
2023-05-09T15:40:54.328Z,14100.3584
2023-05-09T15:55:56.312Z,11155.01758
2023-05-09T16:10:58.309Z,10418.36523
2023-05-09T16:26:00.449Z,9868.0957
2023-05-09T16:41:02.464Z,9546.04785
2023-05-09T16:56:04.515Z,9260.76953
2023-05-09T17:11:06.493Z,9016.06348
2023-05-09T17:26:08.539Z,5593.9917
2023-05-09T17:41:10.582Z,6482.79199
2023-05-09T17:56:12.609Z,5454.52197
2023-05-09T18:11:14.763Z,8259.125
2023-05-09T18:26:16.808Z,8218.55273
2023-05-09T18:41:18.848Z,9230.33984
2023-05-09T18:56:20.833Z,8964.08008
2023-05-09T19:11:22.853Z,7768.44678
2023-05-09T19:26:24.933Z,8904.48828
2023-05-09T19:41:26.976Z,8027.09912
2023-05-09T19:56:28.942Z,6440.95117
2023-05-09T20:11:30.933Z,6749.05176
2023-05-09T20:26:32.995Z,5411.41357
2023-05-09T20:41:34.906Z,4544.16748
2023-05-09T20:56:36.946Z,5929.98633
2023-05-09T21:11:39.127Z,9173.28418
2023-05-09T21:26:41.117Z,8817.00293
2023-05-09T21:41:43.072Z,3933.0376
2023-05-09T21:56:45.049Z,3788.49658
2023-05-09T22:11:47.157Z,3676.92114
2023-05-09T22:26:49.295Z,3678.18896
2023-05-09T22:41:51.234Z,3959.66357
2023-05-09T22:56:53.294Z,7074.90332
2023-05-09T23:11:55.265Z,8382.1123
2023-05-09T23:26:57.280Z,7961.16797
2023-05-09T23:41:59.324Z,7781.12549
2023-05-09T23:57:01.439Z,9087.06641
